VH80 CYXU-CYXU
Flight info
| Callsign | VH80 |
|---|---|
| Flight time | 0h 5m |
| Altitude | 1900 |
| Route | VFR CIRCUITS |
| Aircraft | C172 |
Departure
| Time | 2026-05-05 00:05 |
|---|---|
| Airport | London International Airport (CYXU) |
Arrival
| Time | 2026-05-05 00:10 |
|---|---|
| Airport | London International Airport (CYXU) |
| Time | Latitude | Longitude | Altitude | Speed | Heading |
|---|---|---|---|---|---|
| 2026-05-04 23:52 | 43.03573 | -81.16432 | 907 ft | 0 kts | 333° |
| 2026-05-04 23:57 | 43.03590 | -81.16446 | 907 ft | 6 kts | 346° |
| 2026-05-04 23:57 | 43.03607 | -81.16394 | 907 ft | 5 kts | 76° |
| 2026-05-04 23:58 | 43.03610 | -81.16379 | 907 ft | 3 kts | 77° |
| 2026-05-04 23:58 | 43.03622 | -81.16299 | 906 ft | 10 kts | 78° |
| 2026-05-04 23:58 | 43.03645 | -81.16143 | 903 ft | 21 kts | 85° |
| 2026-05-04 23:58 | 43.03674 | -81.15940 | 902 ft | 14 kts | 66° |
| 2026-05-04 23:59 | 43.03687 | -81.15929 | 900 ft | 0 kts | 240° |
| 2026-05-05 00:00 | 43.03686 | -81.15929 | 901 ft | 0 kts | 239° |
| 2026-05-05 00:00 | 43.03679 | -81.15896 | 901 ft | 2 kts | 78° |
| 2026-05-05 00:00 | 43.03688 | -81.15841 | 900 ft | 6 kts | 79° |
| 2026-05-05 00:01 | 43.03691 | -81.15825 | 900 ft | 3 kts | 76° |
| 2026-05-05 00:01 | 43.03719 | -81.15741 | 898 ft | 13 kts | 7° |
| 2026-05-05 00:01 | 43.03784 | -81.15790 | 899 ft | 8 kts | 320° |
| 2026-05-05 00:01 | 43.03852 | -81.15871 | 901 ft | 18 kts | 320° |
| 2026-05-05 00:02 | 43.03955 | -81.15992 | 902 ft | 21 kts | 322° |
| 2026-05-05 00:02 | 43.04079 | -81.16006 | 908 ft | 16 kts | 14° |
| 2026-05-05 00:02 | 43.04136 | -81.15907 | 907 ft | 14 kts | 102° |
| 2026-05-05 00:02 | 43.04060 | -81.15804 | 904 ft | 12 kts | 131° |
| 2026-05-05 00:03 | 43.04055 | -81.15796 | 904 ft | 0 kts | 137° |
| 2026-05-05 00:03 | 43.04053 | -81.15794 | 904 ft | 0 kts | 138° |
| 2026-05-05 00:03 | 43.04022 | -81.15756 | 904 ft | 25 kts | 137° |
| 2026-05-05 00:03 | 43.03787 | -81.15422 | 914 ft | 63 kts | 150° |
| 2026-05-05 00:04 | 43.03414 | -81.14999 | 966 ft | 79 kts | 157° |
| 2026-05-05 00:04 | 43.02990 | -81.14504 | 1029 ft | 79 kts | 155° |
| 2026-05-05 00:04 | 43.02544 | -81.13955 | 1125 ft | 91 kts | 154° |
| 2026-05-05 00:04 | 43.02038 | -81.13410 | 1248 ft | 92 kts | 159° |
| 2026-05-05 00:05 | 43.01516 | -81.12971 | 1481 ft | 79 kts | 158° |
| 2026-05-05 00:05 | 43.01506 | -81.12143 | 1569 ft | 120 kts | 58° |
| 2026-05-05 00:05 | 43.01926 | -81.11192 | 1751 ft | 117 kts | 72° |
| 2026-05-05 00:05 | 43.02375 | -81.10215 | 1873 ft | 136 kts | 45° |
| 2026-05-05 00:06 | 43.03255 | -81.10055 | 2009 ft | 126 kts | 332° |
| 2026-05-05 00:06 | 43.04068 | -81.10443 | 2127 ft | 120 kts | 314° |
| 2026-05-05 00:06 | 43.04807 | -81.10958 | 2265 ft | 116 kts | 312° |
| 2026-05-05 00:06 | 43.05485 | -81.11476 | 2436 ft | 109 kts | 308° |
| 2026-05-05 00:07 | 43.06145 | -81.12067 | 2486 ft | 115 kts | 305° |
| 2026-05-05 00:07 | 43.06823 | -81.12712 | 2397 ft | 129 kts | 305° |
| 2026-05-05 00:07 | 43.07476 | -81.13313 | 2581 ft | 84 kts | 305° |
| 2026-05-05 00:07 | 43.07936 | -81.13620 | 2587 ft | 73 kts | 297° |
| 2026-05-05 00:08 | 43.08343 | -81.13996 | 2629 ft | 65 kts | 287° |
| 2026-05-05 00:08 | 43.08626 | -81.14539 | 2463 ft | 76 kts | 259° |
| 2026-05-05 00:08 | 43.08578 | -81.15145 | 2607 ft | 59 kts | 245° |
| 2026-05-05 00:08 | 43.08472 | -81.15682 | 2680 ft | 58 kts | 239° |
| 2026-05-05 00:09 | 43.08323 | -81.16210 | 2719 ft | 61 kts | 240° |
| 2026-05-05 00:09 | 43.08173 | -81.16731 | 2783 ft | 60 kts | 237° |
| 2026-05-05 00:09 | 43.07997 | -81.17245 | 2812 ft | 58 kts | 233° |
| 2026-05-05 00:09 | 43.07743 | -81.17676 | 2852 ft | 60 kts | 225° |
| 2026-05-05 00:10 | 43.07348 | -81.17980 | 2455 ft | 66 kts | 201° |
| 2026-05-05 00:10 | 43.06973 | -81.18019 | 2121 ft | 45 kts | 197° |
| 2026-05-05 00:10 | 43.06628 | -81.17968 | 1859 ft | 47 kts | 194° |
| 2026-05-05 00:10 | 43.06284 | -81.17875 | 1665 ft | 51 kts | 183° |
| 2026-05-05 00:11 | 43.05928 | -81.17731 | 1478 ft | 55 kts | 168° |
| 2026-05-05 00:11 | 43.05598 | -81.17513 | 1331 ft | 51 kts | 164° |
| 2026-05-05 00:11 | 43.05300 | -81.17241 | 1216 ft | 52 kts | 155° |
| 2026-05-05 00:11 | 43.05006 | -81.16918 | 1097 ft | 50 kts | 152° |
| 2026-05-05 00:12 | 43.04757 | -81.16625 | 1019 ft | 47 kts | 147° |
| 2026-05-05 00:12 | 43.04518 | -81.16296 | 989 ft | 53 kts | 149° |
| 2026-05-05 00:12 | 43.04260 | -81.16011 | 925 ft | 44 kts | 156° |
| 2026-05-05 00:12 | 43.04064 | -81.15807 | 904 ft | 35 kts | 140° |
| 2026-05-05 00:13 | 43.03817 | -81.15511 | 925 ft | 52 kts | 141° |
| 2026-05-05 00:13 | 43.03509 | -81.15117 | 944 ft | 71 kts | 147° |
| 2026-05-05 00:13 | 43.03095 | -81.14638 | 1061 ft | 85 kts | 147° |
| 2026-05-05 00:13 | 43.02644 | -81.14061 | 1170 ft | 93 kts | 146° |
| 2026-05-05 00:14 | 43.02180 | -81.13497 | 1447 ft | 75 kts | 150° |
| 2026-05-05 00:14 | 43.02190 | -81.12640 | 1479 ft | 124 kts | 68° |
| 2026-05-05 00:14 | 43.02591 | -81.11565 | 1570 ft | 127 kts | 71° |
| 2026-05-05 00:14 | 43.02980 | -81.10434 | 1597 ft | 132 kts | 66° |
| 2026-05-05 00:15 | 43.03743 | -81.09875 | 1790 ft | 128 kts | 354° |
| 2026-05-05 00:15 | 43.04627 | -81.10053 | 1930 ft | 125 kts | 335° |
| 2026-05-05 00:15 | 43.05446 | -81.10238 | 2220 ft | 116 kts | 328° |
| 2026-05-05 00:15 | 43.06196 | -81.10459 | 2447 ft | 110 kts | 321° |
| 2026-05-05 00:16 | 43.06921 | -81.10780 | 2612 ft | 113 kts | 320° |
| 2026-05-05 00:16 | 43.07685 | -81.11117 | 2710 ft | 118 kts | 321° |
| 2026-05-05 00:16 | 43.08432 | -81.11605 | 2717 ft | 111 kts | 295° |
| 2026-05-05 00:16 | 43.08580 | -81.12452 | 2713 ft | 92 kts | 254° |
| 2026-05-05 00:17 | 43.08541 | -81.13318 | 2787 ft | 89 kts | 253° |
| 2026-05-05 00:17 | 43.08462 | -81.14135 | 2867 ft | 82 kts | 248° |
| 2026-05-05 00:17 | 43.08369 | -81.14872 | 2995 ft | 79 kts | 249° |
| 2026-05-05 00:17 | 43.08245 | -81.15594 | 3079 ft | 78 kts | 245° |
| 2026-05-05 00:18 | 43.08087 | -81.16301 | 3117 ft | 70 kts | 245° |
| 2026-05-05 00:18 | 43.07949 | -81.17005 | 3025 ft | 83 kts | 246° |
| 2026-05-05 00:18 | 43.07812 | -81.17802 | 2979 ft | 88 kts | 245° |
| 2026-05-05 00:18 | 43.07542 | -81.18538 | 2888 ft | 90 kts | 231° |
| 2026-05-05 00:19 | 43.06865 | -81.18673 | 2361 ft | 127 kts | 167° |
| 2026-05-05 00:19 | 43.06186 | -81.18067 | 1833 ft | 101 kts | 154° |
| 2026-05-05 00:19 | 43.05727 | -81.17556 | 1515 ft | 90 kts | 159° |
| 2026-05-05 00:19 | 43.05221 | -81.17116 | 1293 ft | 81 kts | 155° |
| 2026-05-05 00:20 | 43.04779 | -81.16665 | 1063 ft | 80 kts | 139° |
| 2026-05-05 00:20 | 43.04392 | -81.16158 | 950 ft | 77 kts | 149° |
| 2026-05-05 00:20 | 43.04017 | -81.15744 | 904 ft | 63 kts | 144° |
| 2026-05-05 00:20 | 43.03627 | -81.15275 | 944 ft | 84 kts | 148° |
| 2026-05-05 00:21 | 43.03172 | -81.14736 | 1085 ft | 90 kts | 146° |
| 2026-05-05 00:21 | 43.02697 | -81.14160 | 1251 ft | 92 kts | 144° |
| 2026-05-05 00:21 | 43.02209 | -81.13569 | 1344 ft | 98 kts | 146° |
| 2026-05-05 00:21 | 43.01912 | -81.12746 | 1403 ft | 128 kts | 78° |
| 2026-05-05 00:22 | 43.02229 | -81.11691 | 1568 ft | 127 kts | 73° |
| 2026-05-05 00:22 | 43.02728 | -81.10796 | 1778 ft | 123 kts | 5° |
| 2026-05-05 00:22 | 43.03610 | -81.10840 | 1764 ft | 131 kts | 336° |
| 2026-05-05 00:22 | 43.04454 | -81.11191 | 1935 ft | 120 kts | 323° |
| 2026-05-05 00:23 | 43.05225 | -81.11529 | 2148 ft | 117 kts | 320° |
| 2026-05-05 00:23 | 43.06031 | -81.11833 | 2292 ft | 125 kts | 323° |
| 2026-05-05 00:23 | 43.06845 | -81.12188 | 2398 ft | 128 kts | 322° |
| 2026-05-05 00:23 | 43.07609 | -81.12712 | 2348 ft | 106 kts | 281° |
| 2026-05-05 00:24 | 43.08312 | -81.13295 | 2414 ft | 101 kts | 279° |
| 2026-05-05 00:24 | 43.08448 | -81.14088 | 2411 ft | 74 kts | 258° |
| 2026-05-05 00:24 | 43.08470 | -81.14705 | 2275 ft | 57 kts | 253° |
| 2026-05-05 00:24 | 43.08465 | -81.15161 | 2166 ft | 43 kts | 239° |
| 2026-05-05 00:25 | 43.08343 | -81.15610 | 2160 ft | 65 kts | 240° |
| 2026-05-05 00:25 | 43.08159 | -81.16264 | 2107 ft | 79 kts | 239° |
| 2026-05-05 00:25 | 43.07944 | -81.16957 | 2195 ft | 78 kts | 240° |
| 2026-05-05 00:25 | 43.07726 | -81.17667 | 2147 ft | 77 kts | 234° |
| 2026-05-05 00:26 | 43.07406 | -81.18213 | 1896 ft | 76 kts | 218° |
| 2026-05-05 00:26 | 43.06997 | -81.18463 | 1815 ft | 57 kts | 200° |
| 2026-05-05 00:26 | 43.06553 | -81.18426 | 1675 ft | 69 kts | 178° |
| 2026-05-05 00:26 | 43.06073 | -81.18188 | 1552 ft | 75 kts | 164° |
| 2026-05-05 00:27 | 43.05669 | -81.17753 | 1397 ft | 66 kts | 153° |
| 2026-05-05 00:27 | 43.05312 | -81.17298 | 1245 ft | 75 kts | 148° |
| 2026-05-05 00:27 | 43.04933 | -81.16857 | 1149 ft | 67 kts | 144° |
| 2026-05-05 00:27 | 43.04608 | -81.16463 | 1044 ft | 63 kts | 140° |
| 2026-05-05 00:28 | 43.04274 | -81.16058 | 940 ft | 63 kts | 135° |
| 2026-05-05 00:28 | 43.03973 | -81.15663 | 904 ft | 66 kts | 147° |
| 2026-05-05 00:28 | 43.03570 | -81.15190 | 964 ft | 85 kts | 140° |
| 2026-05-05 00:28 | 43.03109 | -81.14649 | 1055 ft | 94 kts | 147° |
| 2026-05-05 00:29 | 43.02635 | -81.14061 | 1268 ft | 88 kts | 146° |
| 2026-05-05 00:29 | 43.02141 | -81.13498 | 1399 ft | 91 kts | 148° |
| 2026-05-05 00:29 | 43.02122 | -81.12539 | 1429 ft | 123 kts | 73° |
| 2026-05-05 00:29 | 43.02610 | -81.11652 | 1585 ft | 125 kts | 5° |
| 2026-05-05 00:30 | 43.03445 | -81.12065 | 1584 ft | 130 kts | 328° |
| 2026-05-05 00:30 | 43.04245 | -81.12506 | 1872 ft | 114 kts | 317° |
| 2026-05-05 00:30 | 43.04965 | -81.12902 | 2035 ft | 113 kts | 313° |
| 2026-05-05 00:30 | 43.05730 | -81.13376 | 2113 ft | 126 kts | 316° |
| 2026-05-05 00:31 | 43.06528 | -81.13774 | 2408 ft | 115 kts | 317° |
| 2026-05-05 00:31 | 43.07102 | -81.14228 | 2526 ft | 77 kts | 263° |
| 2026-05-05 00:31 | 43.07095 | -81.15066 | 2383 ft | 87 kts | 253° |
| 2026-05-05 00:31 | 43.07063 | -81.15917 | 2308 ft | 96 kts | 257° |
| 2026-05-05 00:32 | 43.06835 | -81.16730 | 2091 ft | 89 kts | 225° |
| 2026-05-05 00:32 | 43.06519 | -81.17299 | 1996 ft | 61 kts | 227° |
| 2026-05-05 00:32 | 43.06203 | -81.17598 | 1809 ft | 61 kts | 206° |
| 2026-05-05 00:32 | 43.05708 | -81.17681 | 1551 ft | 86 kts | 179° |
| 2026-05-05 00:33 | 43.05202 | -81.17196 | 1287 ft | 86 kts | 148° |
| 2026-05-05 00:33 | 43.04770 | -81.16679 | 1131 ft | 84 kts | 145° |
| 2026-05-05 00:33 | 43.04350 | -81.16153 | 955 ft | 75 kts | 148° |
| 2026-05-05 00:33 | 43.03995 | -81.15736 | 904 ft | 64 kts | 142° |
| 2026-05-05 00:34 | 43.03615 | -81.15232 | 958 ft | 86 kts | 141° |
| 2026-05-05 00:34 | 43.03134 | -81.14682 | 1043 ft | 96 kts | 144° |
| 2026-05-05 00:34 | 43.02616 | -81.14069 | 1137 ft | 101 kts | 146° |
| 2026-05-05 00:34 | 43.02108 | -81.13461 | 1335 ft | 95 kts | 147° |
| 2026-05-05 00:35 | 43.01778 | -81.12692 | 1415 ft | 128 kts | 84° |
| 2026-05-05 00:35 | 43.02185 | -81.11648 | 1675 ft | 125 kts | 49° |
| 2026-05-05 00:35 | 43.03037 | -81.11519 | 1784 ft | 124 kts | 336° |
| 2026-05-05 00:35 | 43.03875 | -81.11805 | 1920 ft | 123 kts | 326° |
| 2026-05-05 00:36 | 43.04700 | -81.12073 | 2048 ft | 115 kts | 319° |
| 2026-05-05 00:36 | 43.05408 | -81.12433 | 2324 ft | 104 kts | 309° |
| 2026-05-05 00:36 | 43.06061 | -81.12847 | 2515 ft | 100 kts | 306° |
| 2026-05-05 00:36 | 43.06553 | -81.13340 | 2596 ft | 80 kts | 270° |
| 2026-05-05 00:37 | 43.06579 | -81.14264 | 1967 ft | 100 kts | 252° |
| 2026-05-05 00:37 | 43.06534 | -81.15068 | 1829 ft | 72 kts | 246° |
| 2026-05-05 00:37 | 43.06389 | -81.15763 | 1864 ft | 83 kts | 249° |
| 2026-05-05 00:37 | 43.06179 | -81.16404 | 1894 ft | 60 kts | 218° |
| 2026-05-05 00:38 | 43.05776 | -81.16732 | 1488 ft | 78 kts | 201° |
| 2026-05-05 00:38 | 43.05239 | -81.16815 | 1331 ft | 78 kts | 178° |
| 2026-05-05 00:38 | 43.04733 | -81.16605 | 1150 ft | 77 kts | 148° |
| 2026-05-05 00:38 | 43.04340 | -81.16146 | 984 ft | 70 kts | 146° |
| 2026-05-05 00:39 | 43.04044 | -81.15775 | 905 ft | 24 kts | 129° |